sensor_id;sensor_type;location;lat;lon;timestamp;P1;durP1;ratioP1;P2;durP2;ratioP2
15929;SDS011;8064;51.142;4.780;2022-11-15T00:00:43;22.33;;;16.87;;
15929;SDS011;8064;51.142;4.780;2022-11-15T00:03:09;23.13;;;16.37;;
15929;SDS011;8064;51.142;4.780;2022-11-15T00:05:35;20.97;;;15.77;;
15929;SDS011;8064;51.142;4.780;2022-11-15T00:08:01;22.87;;;16.43;;
15929;SDS011;8064;51.142;4.780;2022-11-15T00:10:27;21.23;;;16.67;;
15929;SDS011;8064;51.142;4.780;2022-11-15T00:12:52;21.40;;;16.43;;
15929;SDS011;8064;51.142;4.780;2022-11-15T00:15:18;23.33;;;17.13;;
15929;SDS011;8064;51.142;4.780;2022-11-15T00:17:44;27.63;;;16.13;;
15929;SDS011;8064;51.142;4.780;2022-11-15T00:20:13;21.93;;;16.67;;
15929;SDS011;8064;51.142;4.780;2022-11-15T00:22:38;24.43;;;16.47;;
15929;SDS011;8064;51.142;4.780;2022-11-15T00:25:04;18.73;;;16.00;;
15929;SDS011;8064;51.142;4.780;2022-11-15T00:27:30;23.53;;;16.10;;
15929;SDS011;8064;51.142;4.780;2022-11-15T00:29:56;21.40;;;16.97;;
15929;SDS011;8064;51.142;4.780;2022-11-15T00:32:22;21.10;;;16.13;;
15929;SDS011;8064;51.142;4.780;2022-11-15T00:34:47;18.80;;;15.10;;
15929;SDS011;8064;51.142;4.780;2022-11-15T00:37:13;21.27;;;15.67;;
15929;SDS011;8064;51.142;4.780;2022-11-15T00:39:39;23.07;;;16.57;;
15929;SDS011;8064;51.142;4.780;2022-11-15T00:42:04;20.30;;;16.00;;
15929;SDS011;8064;51.142;4.780;2022-11-15T00:44:30;22.73;;;15.93;;
15929;SDS011;8064;51.142;4.780;2022-11-15T00:46:56;20.27;;;15.53;;
15929;SDS011;8064;51.142;4.780;2022-11-15T00:49:21;21.57;;;15.67;;
15929;SDS011;8064;51.142;4.780;2022-11-15T00:51:47;20.63;;;14.80;;
15929;SDS011;8064;51.142;4.780;2022-11-15T00:54:13;21.67;;;16.70;;
15929;SDS011;8064;51.142;4.780;2022-11-15T00:56:38;25.50;;;16.60;;
15929;SDS011;8064;51.142;4.780;2022-11-15T00:59:04;24.07;;;16.03;;
15929;SDS011;8064;51.142;4.780;2022-11-15T01:01:30;19.50;;;15.33;;
15929;SDS011;8064;51.142;4.780;2022-11-15T01:03:56;20.90;;;16.37;;
15929;SDS011;8064;51.142;4.780;2022-11-15T01:06:22;19.47;;;14.83;;
15929;SDS011;8064;51.142;4.780;2022-11-15T01:08:47;21.37;;;15.97;;
15929;SDS011;8064;51.142;4.780;2022-11-15T01:11:13;19.13;;;15.37;;
15929;SDS011;8064;51.142;4.780;2022-11-15T01:13:39;18.67;;;15.00;;
15929;SDS011;8064;51.142;4.780;2022-11-15T01:16:06;20.40;;;14.97;;
15929;SDS011;8064;51.142;4.780;2022-11-15T01:18:41;17.87;;;15.03;;
15929;SDS011;8064;51.142;4.780;2022-11-15T01:21:08;20.37;;;15.33;;
15929;SDS011;8064;51.142;4.780;2022-11-15T01:23:35;17.73;;;14.77;;
15929;SDS011;8064;51.142;4.780;2022-11-15T01:26:01;18.37;;;14.23;;
15929;SDS011;8064;51.142;4.780;2022-11-15T01:28:29;20.23;;;14.87;;
15929;SDS011;8064;51.142;4.780;2022-11-15T01:31:03;17.63;;;13.87;;
15929;SDS011;8064;51.142;4.780;2022-11-15T01:33:33;18.83;;;15.63;;
15929;SDS011;8064;51.142;4.780;2022-11-15T01:36:04;18.73;;;15.07;;
15929;SDS011;8064;51.142;4.780;2022-11-15T01:38:31;16.47;;;14.63;;
15929;SDS011;8064;51.142;4.780;2022-11-15T01:40:57;18.67;;;14.13;;
15929;SDS011;8064;51.142;4.780;2022-11-15T01:43:27;18.47;;;14.00;;
15929;SDS011;8064;51.142;4.780;2022-11-15T01:48:36;16.80;;;13.50;;
15929;SDS011;8064;51.142;4.780;2022-11-15T01:51:02;20.10;;;14.27;;
15929;SDS011;8064;51.142;4.780;2022-11-15T01:53:32;18.43;;;13.33;;
15929;SDS011;8064;51.142;4.780;2022-11-15T01:56:01;16.70;;;13.27;;
15929;SDS011;8064;51.142;4.780;2022-11-15T01:58:29;16.40;;;14.17;;
15929;SDS011;8064;51.142;4.780;2022-11-15T02:00:54;16.70;;;13.93;;
15929;SDS011;8064;51.142;4.780;2022-11-15T02:03:21;24.70;;;14.57;;
15929;SDS011;8064;51.142;4.780;2022-11-15T02:05:51;17.63;;;15.03;;
15929;SDS011;8064;51.142;4.780;2022-11-15T02:08:18;19.03;;;14.83;;
15929;SDS011;8064;51.142;4.780;2022-11-15T02:10:46;18.87;;;14.90;;
15929;SDS011;8064;51.142;4.780;2022-11-15T02:13:13;17.53;;;14.40;;
15929;SDS011;8064;51.142;4.780;2022-11-15T02:15:44;18.60;;;14.80;;
15929;SDS011;8064;51.142;4.780;2022-11-15T02:18:34;19.77;;;14.20;;
15929;SDS011;8064;51.142;4.780;2022-11-15T02:40:53;22.03;;;15.50;;
15929;SDS011;8064;51.142;4.780;2022-11-15T02:43:29;19.10;;;16.03;;
15929;SDS011;8064;51.142;4.780;2022-11-15T02:49:17;19.13;;;16.43;;
15929;SDS011;8064;51.142;4.780;2022-11-15T02:51:44;20.20;;;16.40;;
15929;SDS011;8064;51.142;4.780;2022-11-15T02:54:23;19.70;;;16.73;;
15929;SDS011;8064;51.142;4.780;2022-11-15T02:56:52;18.53;;;15.60;;
15929;SDS011;8064;51.142;4.780;2022-11-15T03:11:07;21.33;;;15.93;;
15929;SDS011;8064;51.142;4.780;2022-11-15T03:15:37;22.43;;;16.47;;
15929;SDS011;8064;51.142;4.780;2022-11-15T03:18:08;21.83;;;16.30;;
15929;SDS011;8064;51.142;4.780;2022-11-15T03:20:46;22.10;;;16.30;;
15929;SDS011;8064;51.142;4.780;2022-11-15T03:23:13;23.63;;;16.93;;
15929;SDS011;8064;51.142;4.780;2022-11-15T03:25:43;22.80;;;16.27;;
15929;SDS011;8064;51.142;4.780;2022-11-15T03:28:13;21.93;;;17.10;;
15929;SDS011;8064;51.142;4.780;2022-11-15T03:30:49;19.93;;;16.10;;
15929;SDS011;8064;51.142;4.780;2022-11-15T03:33:18;19.63;;;16.40;;
15929;SDS011;8064;51.142;4.780;2022-11-15T03:35:46;19.67;;;16.77;;
15929;SDS011;8064;51.142;4.780;2022-11-15T03:38:17;23.43;;;17.50;;
15929;SDS011;8064;51.142;4.780;2022-11-15T03:40:59;20.50;;;16.47;;
15929;SDS011;8064;51.142;4.780;2022-11-15T03:46:06;23.53;;;17.33;;
15929;SDS011;8064;51.142;4.780;2022-11-15T03:48:40;20.83;;;16.63;;
15929;SDS011;8064;51.142;4.780;2022-11-15T03:51:13;22.57;;;17.47;;
15929;SDS011;8064;51.142;4.780;2022-11-15T03:53:40;19.73;;;16.83;;
15929;SDS011;8064;51.142;4.780;2022-11-15T03:56:06;22.23;;;16.80;;
15929;SDS011;8064;51.142;4.780;2022-11-15T03:58:32;21.63;;;17.00;;
15929;SDS011;8064;51.142;4.780;2022-11-15T04:00:58;21.10;;;16.60;;
15929;SDS011;8064;51.142;4.780;2022-11-15T04:03:24;26.23;;;17.27;;
15929;SDS011;8064;51.142;4.780;2022-11-15T04:05:50;23.93;;;16.33;;
15929;SDS011;8064;51.142;4.780;2022-11-15T04:08:16;19.70;;;15.67;;
15929;SDS011;8064;51.142;4.780;2022-11-15T04:10:42;21.47;;;16.83;;
15929;SDS011;8064;51.142;4.780;2022-11-15T04:13:08;20.83;;;16.13;;
15929;SDS011;8064;51.142;4.780;2022-11-15T04:15:33;21.50;;;16.33;;
15929;SDS011;8064;51.142;4.780;2022-11-15T04:17:59;20.60;;;16.63;;
15929;SDS011;8064;51.142;4.780;2022-11-15T04:20:26;18.23;;;15.10;;
15929;SDS011;8064;51.142;4.780;2022-11-15T04:23:13;21.23;;;15.60;;
15929;SDS011;8064;51.142;4.780;2022-11-15T04:26:00;20.10;;;16.53;;
15929;SDS011;8064;51.142;4.780;2022-11-15T04:28:27;20.50;;;15.40;;
15929;SDS011;8064;51.142;4.780;2022-11-15T04:30:53;20.90;;;15.03;;
15929;SDS011;8064;51.142;4.780;2022-11-15T04:33:19;20.27;;;15.43;;
15929;SDS011;8064;51.142;4.780;2022-11-15T04:35:46;19.07;;;15.03;;
15929;SDS011;8064;51.142;4.780;2022-11-15T04:38:31;18.40;;;14.80;;
15929;SDS011;8064;51.142;4.780;2022-11-15T04:40:57;21.30;;;15.13;;
15929;SDS011;8064;51.142;4.780;2022-11-15T04:43:23;19.70;;;15.20;;
15929;SDS011;8064;51.142;4.780;2022-11-15T04:45:49;17.47;;;13.47;;
15929;SDS011;8064;51.142;4.780;2022-11-15T04:48:14;16.07;;;13.67;;
15929;SDS011;8064;51.142;4.780;2022-11-15T04:50:40;14.07;;;12.67;;
15929;SDS011;8064;51.142;4.780;2022-11-15T04:53:06;15.93;;;13.17;;
15929;SDS011;8064;51.142;4.780;2022-11-15T04:55:31;17.50;;;13.03;;
15929;SDS011;8064;51.142;4.780;2022-11-15T04:57:58;17.83;;;12.43;;
15929;SDS011;8064;51.142;4.780;2022-11-15T05:00:25;17.73;;;12.17;;
15929;SDS011;8064;51.142;4.780;2022-11-15T05:02:51;15.87;;;12.07;;
15929;SDS011;8064;51.142;4.780;2022-11-15T05:05:36;15.53;;;11.53;;
15929;SDS011;8064;51.142;4.780;2022-11-15T05:08:02;14.07;;;11.17;;
15929;SDS011;8064;51.142;4.780;2022-11-15T05:10:28;13.70;;;10.40;;
15929;SDS011;8064;51.142;4.780;2022-11-15T05:12:53;15.30;;;11.30;;
15929;SDS011;8064;51.142;4.780;2022-11-15T05:15:19;17.97;;;11.23;;
15929;SDS011;8064;51.142;4.780;2022-11-15T05:17:45;12.23;;;10.50;;
15929;SDS011;8064;51.142;4.780;2022-11-15T05:20:11;12.17;;;9.73;;
15929;SDS011;8064;51.142;4.780;2022-11-15T05:22:37;14.83;;;10.70;;
15929;SDS011;8064;51.142;4.780;2022-11-15T05:25:03;11.90;;;9.93;;
15929;SDS011;8064;51.142;4.780;2022-11-15T05:27:29;14.17;;;10.23;;
15929;SDS011;8064;51.142;4.780;2022-11-15T05:29:55;14.00;;;9.70;;
15929;SDS011;8064;51.142;4.780;2022-11-15T05:32:21;13.30;;;9.47;;
15929;SDS011;8064;51.142;4.780;2022-11-15T05:34:46;13.20;;;9.43;;
15929;SDS011;8064;51.142;4.780;2022-11-15T05:37:13;12.67;;;9.37;;
15929;SDS011;8064;51.142;4.780;2022-11-15T05:39:39;13.90;;;8.93;;
15929;SDS011;8064;51.142;4.780;2022-11-15T05:44:36;9.57;;;8.07;;
15929;SDS011;8064;51.142;4.780;2022-11-15T05:47:03;11.03;;;8.00;;
15929;SDS011;8064;51.142;4.780;2022-11-15T05:49:31;12.47;;;8.63;;
15929;SDS011;8064;51.142;4.780;2022-11-15T05:52:02;12.00;;;8.57;;
15929;SDS011;8064;51.142;4.780;2022-11-15T05:54:30;14.57;;;8.70;;
15929;SDS011;8064;51.142;4.780;2022-11-15T05:56:57;12.00;;;8.67;;
15929;SDS011;8064;51.142;4.780;2022-11-15T05:59:23;12.47;;;8.57;;
15929;SDS011;8064;51.142;4.780;2022-11-15T06:01:49;10.53;;;8.40;;
15929;SDS011;8064;51.142;4.780;2022-11-15T06:04:15;10.43;;;8.07;;
15929;SDS011;8064;51.142;4.780;2022-11-15T06:06:40;13.97;;;9.13;;
15929;SDS011;8064;51.142;4.780;2022-11-15T06:09:06;14.20;;;9.57;;
15929;SDS011;8064;51.142;4.780;2022-11-15T06:11:32;10.03;;;8.90;;
15929;SDS011;8064;51.142;4.780;2022-11-15T06:13:57;10.10;;;8.50;;
15929;SDS011;8064;51.142;4.780;2022-11-15T06:16:23;10.90;;;8.67;;
15929;SDS011;8064;51.142;4.780;2022-11-15T06:18:49;11.10;;;8.07;;
15929;SDS011;8064;51.142;4.780;2022-11-15T06:21:14;11.53;;;7.90;;
15929;SDS011;8064;51.142;4.780;2022-11-15T06:23:40;11.27;;;7.43;;
15929;SDS011;8064;51.142;4.780;2022-11-15T06:26:06;10.53;;;7.50;;
15929;SDS011;8064;51.142;4.780;2022-11-15T06:28:32;8.70;;;7.03;;
15929;SDS011;8064;51.142;4.780;2022-11-15T06:31:07;10.60;;;8.27;;
15929;SDS011;8064;51.142;4.780;2022-11-15T06:33:34;10.67;;;7.83;;
15929;SDS011;8064;51.142;4.780;2022-11-15T06:36:03;14.20;;;7.43;;
15929;SDS011;8064;51.142;4.780;2022-11-15T06:38:30;9.53;;;6.67;;
15929;SDS011;8064;51.142;4.780;2022-11-15T06:41:02;7.93;;;6.70;;
15929;SDS011;8064;51.142;4.780;2022-11-15T06:43:30;9.53;;;7.13;;
15929;SDS011;8064;51.142;4.780;2022-11-15T06:45:57;10.20;;;6.80;;
15929;SDS011;8064;51.142;4.780;2022-11-15T06:48:24;8.93;;;6.73;;
15929;SDS011;8064;51.142;4.780;2022-11-15T06:50:50;9.40;;;6.43;;
15929;SDS011;8064;51.142;4.780;2022-11-15T06:53:17;8.40;;;6.33;;
15929;SDS011;8064;51.142;4.780;2022-11-15T06:55:42;11.73;;;6.10;;
15929;SDS011;8064;51.142;4.780;2022-11-15T06:58:08;8.27;;;6.03;;
15929;SDS011;8064;51.142;4.780;2022-11-15T07:00:34;8.47;;;5.73;;
15929;SDS011;8064;51.142;4.780;2022-11-15T07:03:00;9.20;;;5.97;;
15929;SDS011;8064;51.142;4.780;2022-11-15T07:05:26;11.37;;;5.50;;
15929;SDS011;8064;51.142;4.780;2022-11-15T07:07:52;7.70;;;5.70;;
15929;SDS011;8064;51.142;4.780;2022-11-15T07:10:20;5.97;;;5.37;;
15929;SDS011;8064;51.142;4.780;2022-11-15T07:12:49;8.77;;;5.57;;
15929;SDS011;8064;51.142;4.780;2022-11-15T07:15:19;8.27;;;5.30;;
15929;SDS011;8064;51.142;4.780;2022-11-15T07:17:46;8.20;;;5.30;;
15929;SDS011;8064;51.142;4.780;2022-11-15T07:20:12;8.33;;;5.20;;
15929;SDS011;8064;51.142;4.780;2022-11-15T07:22:39;8.43;;;4.67;;
15929;SDS011;8064;51.142;4.780;2022-11-15T07:25:05;7.93;;;5.03;;
15929;SDS011;8064;51.142;4.780;2022-11-15T07:27:32;8.30;;;5.70;;
15929;SDS011;8064;51.142;4.780;2022-11-15T07:29:58;7.13;;;5.27;;
15929;SDS011;8064;51.142;4.780;2022-11-15T07:32:24;6.67;;;4.80;;
15929;SDS011;8064;51.142;4.780;2022-11-15T07:34:50;7.67;;;4.90;;
15929;SDS011;8064;51.142;4.780;2022-11-15T07:37:15;11.97;;;5.60;;
15929;SDS011;8064;51.142;4.780;2022-11-15T07:39:42;7.50;;;5.10;;
15929;SDS011;8064;51.142;4.780;2022-11-15T07:42:08;8.83;;;5.67;;
15929;SDS011;8064;51.142;4.780;2022-11-15T07:44:52;7.60;;;4.90;;
15929;SDS011;8064;51.142;4.780;2022-11-15T07:47:18;7.07;;;4.37;;
15929;SDS011;8064;51.142;4.780;2022-11-15T07:49:44;7.23;;;4.97;;
15929;SDS011;8064;51.142;4.780;2022-11-15T07:52:11;9.13;;;5.13;;
15929;SDS011;8064;51.142;4.780;2022-11-15T07:54:37;6.63;;;5.60;;
15929;SDS011;8064;51.142;4.780;2022-11-15T07:57:03;9.33;;;5.00;;
15929;SDS011;8064;51.142;4.780;2022-11-15T07:59:29;9.03;;;5.33;;
15929;SDS011;8064;51.142;4.780;2022-11-15T08:01:54;8.03;;;5.57;;
15929;SDS011;8064;51.142;4.780;2022-11-15T08:04:20;9.10;;;5.67;;
15929;SDS011;8064;51.142;4.780;2022-11-15T08:06:46;7.83;;;5.00;;
15929;SDS011;8064;51.142;4.780;2022-11-15T08:09:11;8.63;;;5.70;;
15929;SDS011;8064;51.142;4.780;2022-11-15T08:11:37;6.37;;;4.73;;
15929;SDS011;8064;51.142;4.780;2022-11-15T08:14:03;8.07;;;5.17;;
15929;SDS011;8064;51.142;4.780;2022-11-15T08:16:29;6.73;;;3.93;;
15929;SDS011;8064;51.142;4.780;2022-11-15T08:18:54;5.63;;;4.10;;
15929;SDS011;8064;51.142;4.780;2022-11-15T08:21:20;7.97;;;3.90;;
15929;SDS011;8064;51.142;4.780;2022-11-15T08:23:46;6.50;;;3.83;;
15929;SDS011;8064;51.142;4.780;2022-11-15T08:26:12;6.33;;;4.37;;
15929;SDS011;8064;51.142;4.780;2022-11-15T08:28:38;8.67;;;3.90;;
15929;SDS011;8064;51.142;4.780;2022-11-15T08:31:04;8.77;;;4.50;;
15929;SDS011;8064;51.142;4.780;2022-11-15T08:33:30;6.10;;;4.13;;
15929;SDS011;8064;51.142;4.780;2022-11-15T08:35:58;7.70;;;3.80;;
15929;SDS011;8064;51.142;4.780;2022-11-15T08:38:24;6.70;;;4.40;;
15929;SDS011;8064;51.142;4.780;2022-11-15T08:40:52;5.30;;;3.80;;
15929;SDS011;8064;51.142;4.780;2022-11-15T08:43:23;5.00;;;3.30;;
15929;SDS011;8064;51.142;4.780;2022-11-15T08:45:49;6.83;;;3.57;;
15929;SDS011;8064;51.142;4.780;2022-11-15T08:48:15;4.60;;;2.93;;
15929;SDS011;8064;51.142;4.780;2022-11-15T08:50:42;6.60;;;2.90;;
15929;SDS011;8064;51.142;4.780;2022-11-15T08:53:08;5.43;;;3.03;;
15929;SDS011;8064;51.142;4.780;2022-11-15T08:55:37;5.87;;;2.80;;
15929;SDS011;8064;51.142;4.780;2022-11-15T08:58:04;7.30;;;2.60;;
15929;SDS011;8064;51.142;4.780;2022-11-15T09:00:30;4.23;;;2.30;;
15929;SDS011;8064;51.142;4.780;2022-11-15T09:02:55;5.23;;;2.30;;
15929;SDS011;8064;51.142;4.780;2022-11-15T09:05:21;3.73;;;1.87;;
15929;SDS011;8064;51.142;4.780;2022-11-15T09:07:47;4.63;;;2.20;;
15929;SDS011;8064;51.142;4.780;2022-11-15T09:10:17;3.13;;;2.10;;
15929;SDS011;8064;51.142;4.780;2022-11-15T09:12:43;6.30;;;2.00;;
15929;SDS011;8064;51.142;4.780;2022-11-15T09:15:09;3.47;;;1.90;;
15929;SDS011;8064;51.142;4.780;2022-11-15T09:17:34;5.00;;;1.83;;
15929;SDS011;8064;51.142;4.780;2022-11-15T09:20:00;3.27;;;1.90;;
15929;SDS011;8064;51.142;4.780;2022-11-15T09:22:27;4.03;;;2.07;;
15929;SDS011;8064;51.142;4.780;2022-11-15T09:24:53;3.07;;;1.47;;
15929;SDS011;8064;51.142;4.780;2022-11-15T09:27:19;3.90;;;1.23;;
15929;SDS011;8064;51.142;4.780;2022-11-15T09:29:45;3.10;;;1.30;;
15929;SDS011;8064;51.142;4.780;2022-11-15T09:32:11;3.07;;;1.10;;
15929;SDS011;8064;51.142;4.780;2022-11-15T09:34:36;3.73;;;1.13;;
15929;SDS011;8064;51.142;4.780;2022-11-15T09:37:02;2.67;;;1.10;;
15929;SDS011;8064;51.142;4.780;2022-11-15T09:39:28;2.93;;;1.20;;
15929;SDS011;8064;51.142;4.780;2022-11-15T09:44:40;3.93;;;1.10;;
15929;SDS011;8064;51.142;4.780;2022-11-15T09:49:58;4.93;;;1.35;;
15929;SDS011;8064;51.142;4.780;2022-11-15T09:52:26;5.97;;;1.30;;
15929;SDS011;8064;51.142;4.780;2022-11-15T09:54:53;7.50;;;1.50;;
15929;SDS011;8064;51.142;4.780;2022-11-15T09:59:56;3.80;;;1.30;;
15929;SDS011;8064;51.142;4.780;2022-11-15T10:02:38;5.18;;;1.50;;
15929;SDS011;8064;51.142;4.780;2022-11-15T10:05:07;5.15;;;1.67;;
15929;SDS011;8064;51.142;4.780;2022-11-15T10:07:40;2.45;;;1.20;;
15929;SDS011;8064;51.142;4.780;2022-11-15T10:12:45;3.72;;;1.30;;
15929;SDS011;8064;51.142;4.780;2022-11-15T10:15:14;3.72;;;1.50;;
15929;SDS011;8064;51.142;4.780;2022-11-15T10:17:48;4.43;;;1.50;;
15929;SDS011;8064;51.142;4.780;2022-11-15T10:20:28;5.22;;;1.70;;
15929;SDS011;8064;51.142;4.780;2022-11-15T10:23:01;4.53;;;1.67;;
15929;SDS011;8064;51.142;4.780;2022-11-15T10:25:34;3.95;;;1.75;;
15929;SDS011;8064;51.142;4.780;2022-11-15T10:28:04;4.13;;;1.88;;
15929;SDS011;8064;51.142;4.780;2022-11-15T10:30:53;5.70;;;1.60;;
15929;SDS011;8064;51.142;4.780;2022-11-15T10:33:23;3.33;;;1.52;;
15929;SDS011;8064;51.142;4.780;2022-11-15T10:38:49;4.05;;;1.50;;
15929;SDS011;8064;51.142;4.780;2022-11-15T10:41:17;3.95;;;1.30;;
15929;SDS011;8064;51.142;4.780;2022-11-15T10:44:03;3.67;;;1.50;;
15929;SDS011;8064;51.142;4.780;2022-11-15T10:46:42;4.15;;;1.17;;
15929;SDS011;8064;51.142;4.780;2022-11-15T10:49:22;3.15;;;1.08;;
15929;SDS011;8064;51.142;4.780;2022-11-15T10:51:57;5.15;;;1.30;;
15929;SDS011;8064;51.142;4.780;2022-11-15T10:54:30;4.75;;;1.30;;
15929;SDS011;8064;51.142;4.780;2022-11-15T10:56:59;3.33;;;1.65;;
15929;SDS011;8064;51.142;4.780;2022-11-15T10:59:30;5.65;;;1.70;;
15929;SDS011;8064;51.142;4.780;2022-11-15T11:01:58;4.25;;;1.02;;
15929;SDS011;8064;51.142;4.780;2022-11-15T11:04:25;4.43;;;1.50;;
15929;SDS011;8064;51.142;4.780;2022-11-15T11:06:52;4.97;;;1.63;;
15929;SDS011;8064;51.142;4.780;2022-11-15T11:11:57;2.92;;;1.30;;
15929;SDS011;8064;51.142;4.780;2022-11-15T11:20:10;4.07;;;1.42;;
15929;SDS011;8064;51.142;4.780;2022-11-15T11:36:49;3.35;;;1.15;;
15929;SDS011;8064;51.142;4.780;2022-11-15T11:42:19;4.70;;;1.05;;
15929;SDS011;8064;51.142;4.780;2022-11-15T11:45:19;4.10;;;1.10;;
15929;SDS011;8064;51.142;4.780;2022-11-15T11:50:39;4.63;;;1.40;;
15929;SDS011;8064;51.142;4.780;2022-11-15T11:56:02;5.77;;;1.23;;
15929;SDS011;8064;51.142;4.780;2022-11-15T11:58:37;4.20;;;1.10;;
15929;SDS011;8064;51.142;4.780;2022-11-15T12:04:29;5.60;;;1.20;;
15929;SDS011;8064;51.142;4.780;2022-11-15T12:06:41;5.23;;;1.33;;
15929;SDS011;8064;51.142;4.780;2022-11-15T12:12:15;6.73;;;1.10;;
15929;SDS011;8064;51.142;4.780;2022-11-15T12:15:03;4.60;;;1.20;;
15929;SDS011;8064;51.142;4.780;2022-11-15T12:17:38;2.83;;;0.90;;
15929;SDS011;8064;51.142;4.780;2022-11-15T12:20:16;6.17;;;1.20;;
15929;SDS011;8064;51.142;4.780;2022-11-15T12:23:07;4.13;;;1.03;;
15929;SDS011;8064;51.142;4.780;2022-11-15T12:28:39;2.40;;;0.83;;
15929;SDS011;8064;51.142;4.780;2022-11-15T12:31:29;3.50;;;1.00;;
15929;SDS011;8064;51.142;4.780;2022-11-15T12:36:47;6.83;;;1.17;;
15929;SDS011;8064;51.142;4.780;2022-11-15T12:39:15;3.80;;;1.50;;
15929;SDS011;8064;51.142;4.780;2022-11-15T12:41:44;4.83;;;1.30;;
15929;SDS011;8064;51.142;4.780;2022-11-15T13:02:22;3.23;;;1.07;;
15929;SDS011;8064;51.142;4.780;2022-11-15T13:17:40;4.03;;;1.50;;
15929;SDS011;8064;51.142;4.780;2022-11-15T13:22:42;7.03;;;1.00;;
15929;SDS011;8064;51.142;4.780;2022-11-15T13:30:39;6.03;;;1.07;;
15929;SDS011;8064;51.142;4.780;2022-11-15T13:33:35;5.47;;;1.10;;
15929;SDS011;8064;51.142;4.780;2022-11-15T13:36:08;7.03;;;1.40;;
15929;SDS011;8064;51.142;4.780;2022-11-15T13:38:40;4.03;;;0.90;;
15929;SDS011;8064;51.142;4.780;2022-11-15T13:43:41;3.57;;;0.97;;
15929;SDS011;8064;51.142;4.780;2022-11-15T13:48:42;4.43;;;1.53;;
15929;SDS011;8064;51.142;4.780;2022-11-15T13:57:03;4.37;;;1.03;;
15929;SDS011;8064;51.142;4.780;2022-11-15T13:59:52;4.00;;;1.43;;
15929;SDS011;8064;51.142;4.780;2022-11-15T14:02:21;4.77;;;1.83;;
15929;SDS011;8064;51.142;4.780;2022-11-15T14:04:58;2.40;;;1.00;;
15929;SDS011;8064;51.142;4.780;2022-11-15T14:07:28;2.80;;;1.13;;
15929;SDS011;8064;51.142;4.780;2022-11-15T14:09:54;2.60;;;0.90;;
15929;SDS011;8064;51.142;4.780;2022-11-15T14:14:49;4.93;;;1.20;;
15929;SDS011;8064;51.142;4.780;2022-11-15T14:19:56;2.80;;;1.00;;
15929;SDS011;8064;51.142;4.780;2022-11-15T14:22:26;4.90;;;1.17;;
15929;SDS011;8064;51.142;4.780;2022-11-15T14:25:15;3.27;;;1.10;;
15929;SDS011;8064;51.142;4.780;2022-11-15T14:27:42;4.50;;;0.90;;
15929;SDS011;8064;51.142;4.780;2022-11-15T14:30:12;3.00;;;0.93;;
15929;SDS011;8064;51.142;4.780;2022-11-15T14:32:44;2.90;;;1.27;;
15929;SDS011;8064;51.142;4.780;2022-11-15T14:35:14;6.13;;;1.53;;
15929;SDS011;8064;51.142;4.780;2022-11-15T14:37:45;3.47;;;1.03;;
15929;SDS011;8064;51.142;4.780;2022-11-15T14:40:18;3.37;;;1.10;;
15929;SDS011;8064;51.142;4.780;2022-11-15T14:42:46;4.23;;;1.20;;
15929;SDS011;8064;51.142;4.780;2022-11-15T14:45:17;3.70;;;1.20;;
15929;SDS011;8064;51.142;4.780;2022-11-15T14:47:44;2.40;;;0.87;;
15929;SDS011;8064;51.142;4.780;2022-11-15T14:50:17;5.00;;;1.13;;
15929;SDS011;8064;51.142;4.780;2022-11-15T14:52:46;6.33;;;1.37;;
15929;SDS011;8064;51.142;4.780;2022-11-15T14:55:24;3.40;;;1.20;;
15929;SDS011;8064;51.142;4.780;2022-11-15T14:57:52;1.80;;;1.10;;
15929;SDS011;8064;51.142;4.780;2022-11-15T15:00:18;2.10;;;0.90;;
15929;SDS011;8064;51.142;4.780;2022-11-15T15:02:44;3.23;;;1.27;;
15929;SDS011;8064;51.142;4.780;2022-11-15T15:05:18;5.17;;;1.20;;
15929;SDS011;8064;51.142;4.780;2022-11-15T15:07:44;1.93;;;1.20;;
15929;SDS011;8064;51.142;4.780;2022-11-15T15:10:11;8.70;;;1.60;;
15929;SDS011;8064;51.142;4.780;2022-11-15T15:12:39;5.10;;;1.23;;
15929;SDS011;8064;51.142;4.780;2022-11-15T15:15:05;3.37;;;1.27;;
15929;SDS011;8064;51.142;4.780;2022-11-15T15:17:37;5.00;;;1.40;;
15929;SDS011;8064;51.142;4.780;2022-11-15T15:20:03;4.70;;;1.17;;
15929;SDS011;8064;51.142;4.780;2022-11-15T15:22:30;4.07;;;1.10;;
15929;SDS011;8064;51.142;4.780;2022-11-15T15:24:56;2.43;;;1.17;;
15929;SDS011;8064;51.142;4.780;2022-11-15T15:27:22;2.90;;;1.50;;
15929;SDS011;8064;51.142;4.780;2022-11-15T15:29:48;4.97;;;1.10;;
15929;SDS011;8064;51.142;4.780;2022-11-15T15:32:13;3.20;;;1.20;;
15929;SDS011;8064;51.142;4.780;2022-11-15T15:34:39;3.80;;;1.30;;
15929;SDS011;8064;51.142;4.780;2022-11-15T15:39:48;2.63;;;1.30;;
15929;SDS011;8064;51.142;4.780;2022-11-15T15:42:14;2.70;;;1.10;;
15929;SDS011;8064;51.142;4.780;2022-11-15T15:44:40;3.13;;;1.30;;
15929;SDS011;8064;51.142;4.780;2022-11-15T15:47:16;2.53;;;1.30;;
15929;SDS011;8064;51.142;4.780;2022-11-15T15:49:46;2.00;;;1.40;;
15929;SDS011;8064;51.142;4.780;2022-11-15T15:52:12;2.97;;;1.47;;
15929;SDS011;8064;51.142;4.780;2022-11-15T15:54:38;1.80;;;1.17;;
15929;SDS011;8064;51.142;4.780;2022-11-15T15:57:05;3.30;;;1.47;;
15929;SDS011;8064;51.142;4.780;2022-11-15T15:59:31;3.20;;;1.50;;
15929;SDS011;8064;51.142;4.780;2022-11-15T16:01:57;2.43;;;1.70;;
15929;SDS011;8064;51.142;4.780;2022-11-15T16:04:24;4.23;;;1.60;;
15929;SDS011;8064;51.142;4.780;2022-11-15T16:06:50;3.00;;;1.60;;
15929;SDS011;8064;51.142;4.780;2022-11-15T16:09:19;3.33;;;1.87;;
15929;SDS011;8064;51.142;4.780;2022-11-15T16:12:08;2.33;;;1.40;;
15929;SDS011;8064;51.142;4.780;2022-11-15T16:14:34;2.70;;;1.23;;
15929;SDS011;8064;51.142;4.780;2022-11-15T16:16:59;3.27;;;1.63;;
15929;SDS011;8064;51.142;4.780;2022-11-15T16:19:25;2.60;;;1.77;;
15929;SDS011;8064;51.142;4.780;2022-11-15T16:21:51;2.63;;;1.60;;
15929;SDS011;8064;51.142;4.780;2022-11-15T16:24:19;3.23;;;1.57;;
15929;SDS011;8064;51.142;4.780;2022-11-15T16:26:46;5.03;;;1.70;;
15929;SDS011;8064;51.142;4.780;2022-11-15T16:29:13;4.60;;;1.80;;
15929;SDS011;8064;51.142;4.780;2022-11-15T16:31:39;3.03;;;1.80;;
15929;SDS011;8064;51.142;4.780;2022-11-15T16:34:04;4.37;;;1.83;;
15929;SDS011;8064;51.142;4.780;2022-11-15T16:36:32;2.70;;;1.80;;
15929;SDS011;8064;51.142;4.780;2022-11-15T16:38:59;3.47;;;2.00;;
15929;SDS011;8064;51.142;4.780;2022-11-15T16:41:28;2.93;;;1.90;;
15929;SDS011;8064;51.142;4.780;2022-11-15T16:43:54;2.50;;;1.87;;
15929;SDS011;8064;51.142;4.780;2022-11-15T16:46:21;3.03;;;1.80;;
15929;SDS011;8064;51.142;4.780;2022-11-15T16:48:49;3.83;;;1.90;;
15929;SDS011;8064;51.142;4.780;2022-11-15T16:51:15;3.27;;;1.97;;
15929;SDS011;8064;51.142;4.780;2022-11-15T16:53:41;3.83;;;2.30;;
15929;SDS011;8064;51.142;4.780;2022-11-15T16:58:51;3.33;;;2.03;;
15929;SDS011;8064;51.142;4.780;2022-11-15T17:01:28;3.30;;;2.13;;
15929;SDS011;8064;51.142;4.780;2022-11-15T17:04:11;4.40;;;2.00;;
15929;SDS011;8064;51.142;4.780;2022-11-15T17:06:38;3.00;;;2.20;;
15929;SDS011;8064;51.142;4.780;2022-11-15T17:09:05;2.63;;;2.03;;
15929;SDS011;8064;51.142;4.780;2022-11-15T17:11:31;4.07;;;2.37;;
15929;SDS011;8064;51.142;4.780;2022-11-15T17:13:57;3.00;;;2.20;;
15929;SDS011;8064;51.142;4.780;2022-11-15T17:16:23;4.03;;;2.43;;
15929;SDS011;8064;51.142;4.780;2022-11-15T17:18:50;2.77;;;2.37;;
15929;SDS011;8064;51.142;4.780;2022-11-15T17:21:17;5.00;;;2.27;;
15929;SDS011;8064;51.142;4.780;2022-11-15T17:23:46;3.40;;;2.50;;
15929;SDS011;8064;51.142;4.780;2022-11-15T17:26:13;2.90;;;2.20;;
15929;SDS011;8064;51.142;4.780;2022-11-15T17:28:40;4.07;;;2.47;;
15929;SDS011;8064;51.142;4.780;2022-11-15T17:31:07;3.60;;;2.70;;
15929;SDS011;8064;51.142;4.780;2022-11-15T17:33:34;4.77;;;2.70;;
15929;SDS011;8064;51.142;4.780;2022-11-15T17:36:01;4.57;;;2.80;;
15929;SDS011;8064;51.142;4.780;2022-11-15T17:38:29;2.70;;;2.50;;
15929;SDS011;8064;51.142;4.780;2022-11-15T17:43:28;3.33;;;2.40;;